createdAt,value
2022-09-27T00:00:44.411Z,7.10
2022-09-27T00:03:12.124Z,7.43
2022-09-27T00:05:39.655Z,7.10
2022-09-27T00:08:06.960Z,6.13
2022-09-27T00:10:34.190Z,5.03
2022-09-27T00:13:01.396Z,10.27
2022-09-27T00:15:28.554Z,6.47
2022-09-27T00:17:55.751Z,6.80
2022-09-27T00:20:23.005Z,9.35
2022-09-27T00:22:50.206Z,7.35
2022-09-27T00:25:17.493Z,11.07
2022-09-27T00:27:44.720Z,10.55
2022-09-27T00:30:12.500Z,9.65
2022-09-27T00:32:39.898Z,9.55
2022-09-27T00:35:07.369Z,5.15
2022-09-27T00:37:34.716Z,7.35
2022-09-27T00:40:02.076Z,6.30
2022-09-27T00:42:29.612Z,8.75
2022-09-27T00:45:14.821Z,6.47
2022-09-27T00:47:47.997Z,5.55
2022-09-27T00:50:24.761Z,5.65
2022-09-27T00:53:46.603Z,4.35
2022-09-27T00:56:20.554Z,8.68
2022-09-27T00:58:57.616Z,7.28
2022-09-27T01:01:24.895Z,2.88
2022-09-27T01:03:59.061Z,4.55
2022-09-27T01:06:26.556Z,13.32
2022-09-27T01:08:53.705Z,5.32
2022-09-27T01:11:40.490Z,5.93
2022-09-27T01:14:31.798Z,3.28
2022-09-27T01:17:16.956Z,6.53
2022-09-27T01:19:59.319Z,3.63
2022-09-27T01:22:38.324Z,6.15
2022-09-27T01:25:32.189Z,5.07
2022-09-27T01:28:26.289Z,4.05
2022-09-27T01:31:28.838Z,6.72
2022-09-27T01:33:59.170Z,3.47
2022-09-27T01:36:48.949Z,6.05
2022-09-27T01:39:31.479Z,3.90
2022-09-27T01:42:47.767Z,3.55
2022-09-27T01:48:24.042Z,4.35
2022-09-27T01:51:08.111Z,1.90
2022-09-27T01:53:43.353Z,1.88
2022-09-27T01:56:39.472Z,4.38
2022-09-27T01:59:28.409Z,3.45
2022-09-27T02:02:10.018Z,3.00
2022-09-27T02:05:00.242Z,4.72
2022-09-27T02:07:37.826Z,2.83
2022-09-27T02:10:17.084Z,1.67
2022-09-27T02:13:16.022Z,0.87
2022-09-27T02:16:14.185Z,3.72
2022-09-27T02:19:12.674Z,2.78
2022-09-27T02:21:50.583Z,1.50
2022-09-27T02:24:24.612Z,2.90
2022-09-27T02:27:04.037Z,0.70
2022-09-27T02:29:40.625Z,1.33
2022-09-27T02:32:09.377Z,2.40
2022-09-27T02:34:38.241Z,0.90
2022-09-27T02:37:06.209Z,1.07
2022-09-27T02:39:33.697Z,1.75
2022-09-27T02:42:06.287Z,0.90
2022-09-27T02:44:34.235Z,0.93
2022-09-27T02:47:27.543Z,2.90
2022-09-27T02:50:12.126Z,1.67
2022-09-27T02:53:20.809Z,2.97
2022-09-27T02:56:24.193Z,2.38
2022-09-27T02:59:26.162Z,0.70
2022-09-27T03:02:23.841Z,0.75
2022-09-27T03:05:30.711Z,1.35
2022-09-27T03:07:58.062Z,3.63
2022-09-27T03:10:28.561Z,5.07
2022-09-27T03:13:00.066Z,3.33
2022-09-27T03:15:28.184Z,0.82
2022-09-27T03:18:02.216Z,3.28
2022-09-27T03:20:49.286Z,6.07
2022-09-27T03:23:21.136Z,3.05
2022-09-27T03:25:49.666Z,1.17
2022-09-27T03:28:18.091Z,3.22
2022-09-27T03:30:46.816Z,1.17
2022-09-27T03:33:26.685Z,2.17
2022-09-27T03:35:58.699Z,1.20
2022-09-27T03:38:26.028Z,3.40
2022-09-27T03:40:53.685Z,1.90
2022-09-27T03:43:21.065Z,3.08
2022-09-27T03:45:48.386Z,1.95
2022-09-27T03:48:17.577Z,1.17
2022-09-27T03:50:44.793Z,2.10
2022-09-27T03:53:12.029Z,8.82
2022-09-27T03:55:39.241Z,2.80
2022-09-27T03:58:06.626Z,1.17
2022-09-27T04:00:36.184Z,1.75
2022-09-27T04:03:04.270Z,3.97
2022-09-27T04:05:49.736Z,2.17
2022-09-27T04:08:22.268Z,4.68
2022-09-27T04:10:50.270Z,4.07
2022-09-27T04:13:17.450Z,1.75
2022-09-27T04:15:53.068Z,0.90
2022-09-27T04:18:38.712Z,0.95
2022-09-27T04:24:07.773Z,3.30
2022-09-27T04:26:37.150Z,1.25
2022-09-27T04:29:15.021Z,3.03
2022-09-27T04:31:49.069Z,4.28
2022-09-27T04:34:45.813Z,3.45
2022-09-27T04:37:14.752Z,2.60
2022-09-27T04:39:46.112Z,1.55
2022-09-27T04:42:13.933Z,1.40
2022-09-27T04:44:41.363Z,3.03
2022-09-27T04:47:08.872Z,2.58
2022-09-27T04:49:36.120Z,1.52
2022-09-27T04:52:03.314Z,1.77
2022-09-27T04:54:30.508Z,1.50
2022-09-27T04:57:08.730Z,4.00
2022-09-27T04:59:37.905Z,1.02
2022-09-27T05:02:05.812Z,2.03
2022-09-27T05:04:59.259Z,2.17
2022-09-27T05:07:30.816Z,1.45
2022-09-27T05:10:04.834Z,1.25
2022-09-27T05:12:32.122Z,1.58
2022-09-27T05:15:02.396Z,0.90
2022-09-27T05:17:38.426Z,3.25
2022-09-27T05:20:37.359Z,2.28
2022-09-27T05:23:12.768Z,5.05
2022-09-27T05:25:40.036Z,2.33
2022-09-27T05:28:08.821Z,3.85
2022-09-27T05:30:36.723Z,0.83
2022-09-27T05:33:08.247Z,2.90
2022-09-27T05:36:04.598Z,4.97
2022-09-27T05:38:32.135Z,0.95
2022-09-27T05:41:00.819Z,1.17
2022-09-27T05:43:28.815Z,2.30
2022-09-27T05:46:00.814Z,0.75
2022-09-27T05:48:30.398Z,7.60
2022-09-27T05:51:04.864Z,1.17
2022-09-27T05:53:33.814Z,4.55
2022-09-27T05:56:04.776Z,1.60
2022-09-27T05:58:52.002Z,1.52
2022-09-27T06:01:20.378Z,1.27
2022-09-27T06:04:13.575Z,1.20
2022-09-27T06:06:49.668Z,1.55
2022-09-27T06:09:17.657Z,1.75
2022-09-27T06:11:47.498Z,2.28
2022-09-27T06:14:17.056Z,3.50
2022-09-27T06:17:10.443Z,2.25
2022-09-27T06:19:41.250Z,4.03
2022-09-27T06:22:08.863Z,1.70
2022-09-27T06:24:46.227Z,2.70
2022-09-27T06:27:22.134Z,4.15
2022-09-27T06:30:14.877Z,2.30
2022-09-27T06:32:48.096Z,4.32
2022-09-27T06:35:28.701Z,1.65
2022-09-27T06:37:56.933Z,1.05
2022-09-27T06:40:26.337Z,3.42
2022-09-27T06:43:30.464Z,0.88
2022-09-27T06:46:05.775Z,1.50
2022-09-27T06:48:51.507Z,1.65
2022-09-27T06:51:20.255Z,1.33
2022-09-27T06:56:16.924Z,1.17
2022-09-27T06:59:12.294Z,1.27
2022-09-27T07:02:00.673Z,1.70
2022-09-27T07:04:28.024Z,0.77
2022-09-27T07:07:05.971Z,2.92
2022-09-27T07:09:40.672Z,1.60
2022-09-27T07:12:08.110Z,0.45
2022-09-27T07:14:35.970Z,2.28
2022-09-27T07:17:04.960Z,2.50
2022-09-27T07:19:39.442Z,0.60
2022-09-27T07:22:08.054Z,1.00
2022-09-27T07:24:35.892Z,2.45
2022-09-27T07:27:04.243Z,2.10
2022-09-27T07:29:31.993Z,0.77
2022-09-27T07:32:00.108Z,2.90
2022-09-27T07:34:28.263Z,2.25
2022-09-27T07:37:00.447Z,0.75
2022-09-27T07:39:28.336Z,2.22
2022-09-27T07:41:55.878Z,3.20
2022-09-27T07:44:23.132Z,1.10
2022-09-27T07:47:19.520Z,2.03
2022-09-27T07:50:05.334Z,1.83
2022-09-27T07:52:49.586Z,0.50
2022-09-27T07:55:28.598Z,0.93
2022-09-27T07:58:24.989Z,1.38
2022-09-27T08:00:56.802Z,0.30
2022-09-27T08:03:24.329Z,2.80
2022-09-27T08:05:51.728Z,1.42
2022-09-27T08:08:19.063Z,1.98
2022-09-27T08:13:20.329Z,4.45
2022-09-27T08:15:52.383Z,1.58
2022-09-27T08:18:21.864Z,2.40
2022-09-27T08:20:51.969Z,1.35
2022-09-27T08:23:27.704Z,3.00
2022-09-27T08:26:09.751Z,5.20
2022-09-27T08:28:55.640Z,1.45
2022-09-27T08:31:26.188Z,3.03
2022-09-27T08:33:56.627Z,4.55
2022-09-27T08:36:24.436Z,3.92
2022-09-27T08:38:52.229Z,3.08
2022-09-27T08:41:38.889Z,4.45
2022-09-27T08:44:17.338Z,5.35
2022-09-27T08:47:06.131Z,2.97
2022-09-27T08:49:47.030Z,2.92
2022-09-27T08:52:41.313Z,4.55
2022-09-27T08:55:22.183Z,2.22
2022-09-27T08:57:57.656Z,5.43
2022-09-27T09:00:29.490Z,4.70
2022-09-27T09:03:01.515Z,4.60
2022-09-27T09:05:35.501Z,7.57
2022-09-27T09:08:21.610Z,5.55
2022-09-27T09:11:33.335Z,9.32
2022-09-27T09:14:27.325Z,6.55
2022-09-27T09:17:26.365Z,3.00
2022-09-27T09:20:26.256Z,3.47
2022-09-27T09:23:14.539Z,8.10
2022-09-27T09:26:09.397Z,5.75
2022-09-27T09:28:54.955Z,4.75
2022-09-27T09:31:22.396Z,7.50
2022-09-27T09:33:55.249Z,10.20
2022-09-27T09:36:34.184Z,8.65
2022-09-27T09:39:08.223Z,9.13
2022-09-27T09:41:47.767Z,5.97
2022-09-27T09:46:57.521Z,3.30
2022-09-27T09:49:37.164Z,5.63
2022-09-27T09:52:14.716Z,8.75
2022-09-27T09:55:05.228Z,4.72
2022-09-27T09:57:53.016Z,11.68
2022-09-27T10:00:24.399Z,3.65
2022-09-27T10:02:58.103Z,3.83
2022-09-27T10:05:27.593Z,5.13
2022-09-27T10:08:17.035Z,7.72
2022-09-27T10:10:45.453Z,4.97
2022-09-27T10:13:36.284Z,4.57
2022-09-27T10:16:09.025Z,11.27
2022-09-27T10:18:44.046Z,4.45
2022-09-27T10:21:25.719Z,4.93
2022-09-27T10:24:14.974Z,5.32
2022-09-27T10:27:04.066Z,4.38
2022-09-27T10:29:38.164Z,7.63
2022-09-27T10:32:50.367Z,4.72
2022-09-27T10:35:40.435Z,5.78
2022-09-27T10:38:21.149Z,3.95
2022-09-27T10:40:50.640Z,4.65
2022-09-27T10:43:36.567Z,4.13
2022-09-27T10:46:32.867Z,2.65
2022-09-27T10:49:28.020Z,1.17
2022-09-27T10:52:02.712Z,0.82
2022-09-27T10:54:33.877Z,1.90
2022-09-27T10:57:19.928Z,1.23
2022-09-27T10:59:53.264Z,3.17
2022-09-27T11:02:24.449Z,0.52
2022-09-27T11:05:05.690Z,3.80
2022-09-27T11:07:37.350Z,0.95
2022-09-27T11:10:22.704Z,3.08
2022-09-27T11:13:07.173Z,3.13
2022-09-27T11:15:41.761Z,4.90
2022-09-27T11:18:20.268Z,1.33
2022-09-27T11:21:21.497Z,1.27
2022-09-27T11:24:25.729Z,2.42
2022-09-27T11:27:02.617Z,5.95
2022-09-27T11:30:08.499Z,6.78
2022-09-27T11:33:28.292Z,3.60
2022-09-27T11:36:13.671Z,4.35
2022-09-27T11:39:13.668Z,4.93
2022-09-27T11:41:50.271Z,6.25
2022-09-27T11:44:43.968Z,6.38
2022-09-27T11:47:21.194Z,4.72
2022-09-27T11:50:04.059Z,8.45
2022-09-27T11:52:46.792Z,4.93
2022-09-27T11:55:15.573Z,7.20
2022-09-27T11:58:04.497Z,3.97
2022-09-27T12:00:56.469Z,5.68
2022-09-27T12:03:25.358Z,6.63
2022-09-27T12:06:12.791Z,3.58
2022-09-27T12:11:30.640Z,3.28
2022-09-27T12:14:00.724Z,4.13
2022-09-27T12:16:30.416Z,4.38
2022-09-27T12:19:00.891Z,3.72
2022-09-27T12:21:47.644Z,3.63
2022-09-27T12:24:21.465Z,5.15
2022-09-27T12:27:35.258Z,8.15
2022-09-27T12:30:05.397Z,3.45
2022-09-27T12:32:44.357Z,5.78
2022-09-27T12:35:27.832Z,2.88
2022-09-27T12:38:15.492Z,5.07
2022-09-27T12:40:55.548Z,6.38
2022-09-27T12:43:33.516Z,3.70
2022-09-27T12:46:22.956Z,4.65
2022-09-27T12:49:05.285Z,3.45
2022-09-27T12:51:41.504Z,5.40
2022-09-27T12:54:12.789Z,6.15
2022-09-27T12:56:57.998Z,5.22
2022-09-27T12:59:47.873Z,1.85
2022-09-27T13:03:10.988Z,1.15
2022-09-27T13:06:15.174Z,3.67
2022-09-27T13:08:49.683Z,9.43
2022-09-27T13:11:41.586Z,5.00
2022-09-27T13:16:47.983Z,5.78
2022-09-27T13:19:39.716Z,1.55
2022-09-27T13:22:38.189Z,1.85
2022-09-27T13:25:56.207Z,1.05
2022-09-27T13:28:52.176Z,0.93
2022-09-27T13:34:44.214Z,1.17
2022-09-27T13:38:01.314Z,2.00
2022-09-27T13:40:33.285Z,0.50
2022-09-27T13:43:26.902Z,1.90
2022-09-27T13:46:07.888Z,1.42
2022-09-27T13:48:43.847Z,4.68
2022-09-27T13:51:38.190Z,0.82
2022-09-27T13:54:26.640Z,4.57
2022-09-27T13:56:56.136Z,4.05
2022-09-27T13:59:32.893Z,1.60
2022-09-27T14:02:26.042Z,2.72
2022-09-27T14:04:56.785Z,4.03
2022-09-27T14:07:34.803Z,0.80
2022-09-27T14:10:04.044Z,2.83
2022-09-27T14:12:39.125Z,3.40
2022-09-27T14:15:20.535Z,4.65
2022-09-27T14:17:47.971Z,2.83
2022-09-27T14:20:35.068Z,3.63
2022-09-27T14:23:04.640Z,21.73
2022-09-27T14:25:39.696Z,15.90
2022-09-27T14:28:28.842Z,22.20
2022-09-27T14:31:20.452Z,8.65
2022-09-27T14:34:13.900Z,11.18
2022-09-27T14:37:24.281Z,14.80
2022-09-27T14:40:06.933Z,5.65
2022-09-27T14:42:37.912Z,1.73
2022-09-27T14:45:29.851Z,2.15
2022-09-27T14:47:58.580Z,2.58
2022-09-27T14:50:29.508Z,1.50
2022-09-27T14:52:59.795Z,3.50
2022-09-27T14:55:30.090Z,1.80
2022-09-27T14:58:00.280Z,3.70
2022-09-27T15:00:35.230Z,1.45
2022-09-27T15:03:06.199Z,4.22
2022-09-27T15:05:34.907Z,5.03
2022-09-27T15:08:06.485Z,2.55
2022-09-27T15:10:36.573Z,3.13
2022-09-27T15:13:05.254Z,1.40
2022-09-27T15:15:35.624Z,0.93
2022-09-27T15:18:23.687Z,1.77
2022-09-27T15:20:54.363Z,4.95
2022-09-27T15:23:39.496Z,6.20
2022-09-27T15:26:21.902Z,12.93
2022-09-27T15:28:52.284Z,14.35
2022-09-27T15:31:34.663Z,15.40
2022-09-27T15:34:04.493Z,13.43
2022-09-27T15:36:52.969Z,14.15
2022-09-27T15:39:28.322Z,11.88
2022-09-27T15:42:07.437Z,6.43
2022-09-27T15:44:39.558Z,1.95
2022-09-27T15:47:32.283Z,2.95
2022-09-27T15:50:19.659Z,5.57
2022-09-27T15:52:52.234Z,4.25
2022-09-27T15:55:26.824Z,4.95
2022-09-27T15:58:05.721Z,5.78
2022-09-27T16:00:32.904Z,3.70
2022-09-27T16:03:00.315Z,5.72
2022-09-27T16:05:29.464Z,2.53
2022-09-27T16:07:58.080Z,3.28
2022-09-27T16:10:48.636Z,3.93
2022-09-27T16:13:15.915Z,3.42
2022-09-27T16:15:44.316Z,5.03
2022-09-27T16:18:11.699Z,4.60
2022-09-27T16:20:39.075Z,2.38
2022-09-27T16:23:06.964Z,3.28
2022-09-27T16:25:34.186Z,3.03
2022-09-27T16:28:02.446Z,2.22
2022-09-27T16:30:29.996Z,1.60
2022-09-27T16:32:58.401Z,3.72
2022-09-27T16:35:26.749Z,2.65
2022-09-27T16:37:53.864Z,1.77
2022-09-27T16:40:21.171Z,3.53
2022-09-27T16:42:48.912Z,3.88
2022-09-27T16:45:19.188Z,1.40
2022-09-27T16:47:47.476Z,2.80
2022-09-27T16:50:33.657Z,1.85
2022-09-27T16:53:01.035Z,2.67
2022-09-27T16:55:29.316Z,3.50
2022-09-27T16:57:59.945Z,4.25
2022-09-27T17:00:27.532Z,6.95
2022-09-27T17:02:54.795Z,13.85
2022-09-27T17:05:23.076Z,4.18
2022-09-27T17:07:52.360Z,6.45
2022-09-27T17:10:20.612Z,5.53
2022-09-27T17:12:48.240Z,7.65
2022-09-27T17:15:16.867Z,7.57
2022-09-27T17:17:45.288Z,7.47
2022-09-27T17:20:12.673Z,3.80
2022-09-27T17:22:39.781Z,1.70
2022-09-27T17:25:07.307Z,13.13
2022-09-27T17:27:34.452Z,25.75
2022-09-27T17:30:01.791Z,12.38
2022-09-27T17:32:30.368Z,34.23
2022-09-27T17:34:58.514Z,22.75
2022-09-27T17:37:25.638Z,20.98
2022-09-27T17:39:52.820Z,18.15
2022-09-27T17:42:19.989Z,5.45
2022-09-27T17:44:47.542Z,3.72
2022-09-27T17:47:32.928Z,3.78
2022-09-27T17:50:18.862Z,14.63
2022-09-27T17:52:46.128Z,14.05
2022-09-27T17:55:14.734Z,11.30
2022-09-27T17:57:41.932Z,7.87
2022-09-27T18:00:09.678Z,8.73
2022-09-27T18:02:43.330Z,1.55
2022-09-27T18:05:10.853Z,3.00
2022-09-27T18:07:38.036Z,2.45
2022-09-27T18:10:05.555Z,1.52
2022-09-27T18:12:32.946Z,10.82
2022-09-27T18:15:00.897Z,15.63
2022-09-27T18:17:28.182Z,8.05
2022-09-27T18:19:56.986Z,10.68
2022-09-27T18:22:29.348Z,4.82
2022-09-27T18:24:56.704Z,4.95
2022-09-27T18:27:23.849Z,3.38
2022-09-27T18:29:51.025Z,19.30
2022-09-27T18:32:18.327Z,11.52
2022-09-27T18:34:45.438Z,4.68
2022-09-27T18:37:12.676Z,6.82
2022-09-27T18:39:40.869Z,6.60
2022-09-27T18:42:09.036Z,8.70
2022-09-27T18:44:36.205Z,10.32
2022-09-27T18:47:03.892Z,10.75
2022-09-27T18:49:34.000Z,18.73
2022-09-27T18:52:02.490Z,20.77
2022-09-27T18:54:29.608Z,4.88
2022-09-27T18:56:56.864Z,7.68
2022-09-27T18:59:24.127Z,5.90
2022-09-27T19:01:51.676Z,6.85
2022-09-27T19:04:27.022Z,4.13
2022-09-27T19:06:55.612Z,3.78
2022-09-27T19:09:23.032Z,7.38
2022-09-27T19:11:50.256Z,3.22
2022-09-27T19:14:19.851Z,3.47
2022-09-27T19:19:19.741Z,3.15
2022-09-27T19:21:47.738Z,7.95
2022-09-27T19:24:15.611Z,4.72
2022-09-27T19:26:43.086Z,5.70
2022-09-27T19:29:10.817Z,5.10
2022-09-27T19:31:38.049Z,4.35
2022-09-27T19:34:05.337Z,7.32
2022-09-27T19:36:32.501Z,4.07
2022-09-27T19:39:00.215Z,6.70
2022-09-27T19:41:27.713Z,3.67
2022-09-27T19:43:55.850Z,4.07
2022-09-27T19:46:24.557Z,4.00
2022-09-27T19:48:52.838Z,4.07
2022-09-27T19:51:22.005Z,6.20
2022-09-27T19:53:50.437Z,6.82
2022-09-27T19:56:18.238Z,6.80
2022-09-27T19:58:45.474Z,1.60
2022-09-27T20:01:20.036Z,4.80
2022-09-27T20:03:48.944Z,3.20
2022-09-27T20:06:18.828Z,3.90
2022-09-27T20:08:47.863Z,4.10
2022-09-27T20:11:17.560Z,5.53
2022-09-27T20:16:18.878Z,6.03
2022-09-27T20:18:48.220Z,2.22
2022-09-27T20:21:16.948Z,3.30
2022-09-27T20:23:48.052Z,4.90
2022-09-27T20:26:17.011Z,2.30
2022-09-27T20:28:49.224Z,2.80
2022-09-27T20:31:18.769Z,7.97
2022-09-27T20:36:20.776Z,2.67
2022-09-27T20:38:52.912Z,2.42
2022-09-27T20:41:22.649Z,8.13
2022-09-27T20:43:54.656Z,11.38
2022-09-27T20:46:23.706Z,5.07
2022-09-27T20:48:53.263Z,4.28
2022-09-27T20:53:51.522Z,3.97
2022-09-27T20:56:44.770Z,3.17
2022-09-27T20:59:17.793Z,10.88
2022-09-27T21:01:47.110Z,5.32
2022-09-27T21:04:16.605Z,7.90
2022-09-27T21:09:18.216Z,4.47
2022-09-27T21:11:51.658Z,3.58
2022-09-27T21:14:19.168Z,4.75
2022-09-27T21:16:46.256Z,6.20
2022-09-27T21:19:13.983Z,4.97
2022-09-27T21:21:41.323Z,3.20
2022-09-27T21:24:08.533Z,6.53
2022-09-27T21:26:35.708Z,3.13
2022-09-27T21:29:07.523Z,4.47
2022-09-27T21:31:35.821Z,5.53
2022-09-27T21:34:04.438Z,2.47
2022-09-27T21:36:33.947Z,7.65
2022-09-27T21:39:01.863Z,4.75
2022-09-27T21:41:29.155Z,3.78
2022-09-27T21:43:57.204Z,3.28
2022-09-27T21:46:28.392Z,4.97
2022-09-27T21:48:58.235Z,6.40
2022-09-27T21:51:30.993Z,6.32
2022-09-27T21:54:00.830Z,4.45
2022-09-27T21:56:29.949Z,4.63
2022-09-27T21:58:57.101Z,4.18
2022-09-27T22:01:28.764Z,4.25
2022-09-27T22:03:56.961Z,3.50
2022-09-27T22:06:27.054Z,4.10
2022-09-27T22:08:55.618Z,2.10
2022-09-27T22:11:25.855Z,2.80
2022-09-27T22:13:53.352Z,2.80
2022-09-27T22:16:22.118Z,3.47
2022-09-27T22:18:51.533Z,2.53
2022-09-27T22:21:26.941Z,2.65
2022-09-27T22:24:07.531Z,1.33
2022-09-27T22:26:37.418Z,2.40
2022-09-27T22:31:33.006Z,2.70
2022-09-27T22:34:03.505Z,2.67
2022-09-27T22:36:32.234Z,2.70
2022-09-27T22:38:59.817Z,1.93
2022-09-27T22:41:27.181Z,2.25
2022-09-27T22:43:54.331Z,3.75
2022-09-27T22:46:22.013Z,2.63
2022-09-27T22:48:49.689Z,3.40
2022-09-27T22:51:17.692Z,3.97
2022-09-27T22:53:45.013Z,4.07
2022-09-27T22:56:17.805Z,3.33
2022-09-27T22:58:47.175Z,2.65
2022-09-27T23:01:16.514Z,2.95
2022-09-27T23:03:45.548Z,3.95
2022-09-27T23:06:14.315Z,1.23
2022-09-27T23:08:41.496Z,2.07
2022-09-27T23:11:11.825Z,3.47
2022-09-27T23:13:41.403Z,2.08
2022-09-27T23:18:38.100Z,5.90
2022-09-27T23:21:09.343Z,3.55
2022-09-27T23:23:41.729Z,4.90
2022-09-27T23:26:11.042Z,4.72
2022-09-27T23:28:39.156Z,6.20
2022-09-27T23:31:08.985Z,4.75
2022-09-27T23:33:38.502Z,6.47
2022-09-27T23:36:08.881Z,3.65
2022-09-27T23:38:37.189Z,6.25
2022-09-27T23:41:04.563Z,2.65
2022-09-27T23:43:31.684Z,7.20
2022-09-27T23:45:58.825Z,4.13
2022-09-27T23:48:26.188Z,1.25
2022-09-27T23:50:53.738Z,3.45
2022-09-27T23:53:21.997Z,3.55
2022-09-27T23:55:59.648Z,4.30
2022-09-27T23:58:26.812Z,7.40
